Time;durP1;ratioP1;P1;durP2;ratioP2;P2;SDS_P1;SDS_P2;PMS_P1;PMS_P2;Temp;Humidity;BMP_temperature;BMP_pressure;BME280_temperature;BME280_humidity;BME280_pressure;Samples;Min_cycle;Max_cycle;Signal;HPM_P1;HPM_P2
2024/02/04 00:00:10;;;;;;;6.90;3.45;;;;;;;12.87;100.00;101161.31;5029894;28;20405;-75
2024/02/04 00:02:39;;;;;;;8.32;3.63;;;;;;;12.62;100.00;101164.81;5028861;28;20137;-76
2024/02/04 00:05:06;;;;;;;8.25;3.47;;;;;;;12.47;100.00;101162.34;5029789;28;20040;-75
2024/02/04 00:07:32;;;;;;;10.32;3.50;;;;;;;12.52;100.00;101165.28;5028970;28;20507;-75
2024/02/04 00:09:58;;;;;;;7.25;3.50;;;;;;;12.28;100.00;101164.94;5029712;28;20100;-75
2024/02/04 00:12:24;;;;;;;8.13;4.05;;;;;;;12.45;100.00;101176.22;5029755;28;20034;-75
2024/02/04 00:14:50;;;;;;;8.35;3.97;;;;;;;12.26;100.00;101166.22;5029800;28;20033;-76
2024/02/04 00:17:17;;;;;;;9.43;3.83;;;;;;;12.07;100.00;101166.06;5028970;28;20458;-76
2024/02/04 00:19:43;;;;;;;10.18;4.05;;;;;;;12.35;100.00;101156.72;5029182;28;20120;-75
2024/02/04 00:22:09;;;;;;;8.48;4.05;;;;;;;12.46;100.00;101145.06;5028465;28;20065;-75
2024/02/04 00:24:35;;;;;;;8.18;3.67;;;;;;;12.42;100.00;101143.00;5029036;28;20033;-76
2024/02/04 00:27:01;;;;;;;8.30;4.22;;;;;;;12.50;100.00;101151.81;5029929;28;20034;-75
2024/02/04 00:29:28;;;;;;;10.07;4.82;;;;;;;12.31;100.00;101153.56;5029643;28;20057;-76
2024/02/04 00:31:54;;;;;;;11.10;4.65;;;;;;;12.22;100.00;101158.44;4994215;28;20113;-75
2024/02/04 00:34:20;;;;;;;10.75;5.10;;;;;;;11.90;100.00;101146.50;5010164;28;20036;-76
2024/02/04 00:36:46;;;;;;;14.68;5.28;;;;;;;12.02;100.00;101141.25;5042858;28;20037;-75
2024/02/04 00:39:12;;;;;;;9.57;5.10;;;;;;;11.88;100.00;101146.72;5025354;28;20033;-75
2024/02/04 00:41:38;;;;;;;11.18;5.07;;;;;;;11.80;100.00;101142.34;4988603;28;20033;-77
2024/02/04 00:44:04;;;;;;;10.95;4.78;;;;;;;11.96;100.00;101129.25;5028396;28;20128;-77
2024/02/04 00:46:30;;;;;;;10.98;5.43;;;;;;;11.96;100.00;101128.41;5008897;28;20216;-76
2024/02/04 00:48:56;;;;;;;13.80;5.55;;;;;;;11.80;100.00;101116.88;5032707;28;20025;-76
2024/02/04 00:51:22;;;;;;;13.02;5.60;;;;;;;11.91;100.00;101120.84;5048423;28;20056;-76
2024/02/04 00:53:48;;;;;;;12.57;5.22;;;;;;;11.93;100.00;101121.47;5033139;28;20400;-76
2024/02/04 00:56:14;;;;;;;11.23;5.40;;;;;;;11.73;100.00;101102.38;5013068;28;20069;-76
2024/02/04 00:58:41;;;;;;;13.50;6.32;;;;;;;12.04;100.00;101103.59;5002903;28;20030;-76
2024/02/04 01:01:07;;;;;;;11.48;5.35;;;;;;;12.09;100.00;101111.97;5033620;28;20022;-76
2024/02/04 01:03:33;;;;;;;16.85;5.63;;;;;;;12.11;100.00;101117.25;5032004;28;20389;-76
2024/02/04 01:06:00;;;;;;;13.57;5.80;;;;;;;11.94;100.00;101114.94;5033553;28;20076;-76
2024/02/04 01:08:27;;;;;;;11.30;5.50;;;;;;;11.83;100.00;101119.19;5033670;28;20067;-76
2024/02/04 01:10:54;;;;;;;11.18;5.18;;;;;;;11.97;100.00;101114.50;5032806;28;20489;-76
2024/02/04 01:13:20;;;;;;;10.27;5.75;;;;;;;11.92;100.00;101114.31;5031773;28;20096;-76
2024/02/04 01:15:46;;;;;;;10.43;6.30;;;;;;;11.72;100.00;101117.09;5032727;28;20029;-76
2024/02/04 01:18:13;;;;;;;13.50;6.03;;;;;;;11.92;100.00;101117.88;5047309;28;20052;-76
2024/02/04 01:20:39;;;;;;;11.75;6.32;;;;;;;11.51;100.00;101116.28;5014988;28;20038;-76
2024/02/04 01:23:07;;;;;;;10.38;6.03;;;;;;;11.50;100.00;101114.59;5011172;28;20373;-76
2024/02/04 01:25:33;;;;;;;12.70;6.38;;;;;;;11.67;100.00;101115.00;5008788;28;20041;-76
2024/02/04 01:27:59;;;;;;;12.80;5.95;;;;;;;11.65;100.00;101108.91;5001323;28;20502;-76
2024/02/04 01:30:25;;;;;;;9.85;5.18;;;;;;;11.56;100.00;101110.19;5031649;28;20087;-76
2024/02/04 01:32:51;;;;;;;11.55;5.63;;;;;;;11.41;100.00;101121.34;5023627;28;20075;-76
2024/02/04 01:35:17;;;;;;;11.43;5.40;;;;;;;11.64;100.00;101124.47;5014688;28;20052;-75
2024/02/04 01:37:43;;;;;;;14.18;5.90;;;;;;;11.32;100.00;101127.00;5029145;28;20445;-76
2024/02/04 01:40:10;;;;;;;13.98;5.43;;;;;;;11.71;100.00;101120.91;5009740;28;20040;-76
2024/02/04 01:42:36;;;;;;;9.32;5.10;;;;;;;11.97;100.00;101130.09;5002036;28;20033;-75
2024/02/04 01:45:02;;;;;;;11.30;5.72;;;;;;;12.03;100.00;101123.78;5021921;28;20033;-76
2024/02/04 01:47:29;;;;;;;12.70;5.70;;;;;;;12.21;100.00;101115.75;5031344;28;20041;-76
2024/02/04 01:49:55;;;;;;;11.13;5.85;;;;;;;12.05;100.00;101117.03;5046968;28;20061;-77
2024/02/04 01:52:22;;;;;;;12.77;6.40;;;;;;;12.27;100.00;101108.53;5030864;28;20041;-76
2024/02/04 01:54:49;;;;;;;14.75;6.60;;;;;;;12.23;100.00;101105.44;4993513;28;20132;-76
2024/02/04 01:57:16;;;;;;;15.17;6.90;;;;;;;12.33;100.00;101113.19;5032014;28;20041;-75
2024/02/04 01:59:42;;;;;;;14.50;6.82;;;;;;;12.19;100.00;101117.81;4994915;28;20038;-76
2024/02/04 02:02:09;;;;;;;12.73;7.10;;;;;;;12.41;100.00;101125.75;5046388;28;20481;-76
2024/02/04 02:04:35;;;;;;;13.70;7.45;;;;;;;12.35;100.00;101127.47;5020955;28;20405;-77
2024/02/04 02:07:02;;;;;;;16.33;7.65;;;;;;;12.12;100.00;101117.03;5031961;28;20412;-76
2024/02/04 02:09:29;;;;;;;11.80;6.40;;;;;;;12.27;100.00;101103.06;5030909;28;20030;-75
2024/02/04 02:12:10;;;;;;;14.07;7.32;;;;;;;12.44;100.00;101097.94;5013910;28;20048;-76
2024/02/04 02:14:41;;;;;;;17.02;7.35;;;;;;;12.48;100.00;101103.81;5009553;28;20037;-76
2024/02/04 02:17:17;;;;;;;14.93;7.93;;;;;;;12.23;100.00;101096.38;5004344;28;20030;-76
2024/02/04 02:19:54;;;;;;;16.85;8.05;;;;;;;12.34;100.00;101081.16;5026530;28;20026;-76
2024/02/04 02:22:26;;;;;;;14.02;7.43;;;;;;;12.57;100.00;101068.84;5030477;28;20017;-75
2024/02/04 02:24:53;;;;;;;15.43;7.93;;;;;;;12.51;100.00;101065.94;5026890;28;20106;-75
2024/02/04 02:27:19;;;;;;;16.38;7.90;;;;;;;12.33;100.00;101084.97;5045384;28;20038;-75
2024/02/04 02:29:45;;;;;;;15.18;7.63;;;;;;;12.29;100.00;101067.31;5012897;28;20385;-76
2024/02/04 02:32:11;;;;;;;15.73;8.05;;;;;;;12.33;100.00;101080.34;5013154;28;20439;-77
2024/02/04 02:34:38;;;;;;;17.15;7.72;;;;;;;12.34;100.00;101075.69;5025073;28;20033;-75
2024/02/04 02:37:18;;;;;;;13.68;7.35;;;;;;;12.35;100.00;101061.81;5013108;28;20041;-76
2024/02/04 02:40:05;;;;;;;11.65;7.15;;;;;;;12.63;100.00;101068.81;5030762;28;20045;-75
2024/02/04 02:42:32;;;;;;;14.90;7.75;;;;;;;12.57;100.00;101079.78;5012841;28;20049;-76
2024/02/04 02:44:59;;;;;;;14.60;6.90;;;;;;;12.38;100.00;101068.72;5031030;28;20040;-76
2024/02/04 02:47:27;;;;;;;15.45;8.40;;;;;;;12.58;100.00;101065.03;5008075;28;20037;-75
2024/02/04 02:49:54;;;;;;;14.98;8.15;;;;;;;12.49;100.00;101051.63;5013470;28;20082;-77
2024/02/04 02:52:21;;;;;;;13.43;7.53;;;;;;;12.19;100.00;101052.19;5013437;28;20033;-75
2024/02/04 02:54:47;;;;;;;16.75;8.05;;;;;;;12.48;100.00;101055.41;5011566;28;20547;-76
2024/02/04 02:57:13;;;;;;;12.80;6.97;;;;;;;12.14;100.00;101056.66;5007566;28;20107;-76
2024/02/04 02:59:39;;;;;;;12.77;7.45;;;;;;;12.42;100.00;101052.72;5026602;28;20038;-76
2024/02/04 03:02:05;;;;;;;15.85;7.55;;;;;;;12.51;100.00;101044.03;5025033;28;20034;-76
2024/02/04 03:04:32;;;;;;;11.85;7.38;;;;;;;12.49;100.00;101048.88;5028890;28;20474;-76
2024/02/04 03:06:58;;;;;;;14.23;7.40;;;;;;;12.55;100.00;101049.88;5003427;28;20040;-75
2024/02/04 03:09:24;;;;;;;16.52;7.57;;;;;;;12.46;100.00;101043.00;5029601;28;20048;-76
2024/02/04 03:11:50;;;;;;;16.50;7.95;;;;;;;12.41;100.00;101043.66;5013243;28;20167;-75
2024/02/04 03:14:17;;;;;;;14.18;8.38;;;;;;;12.33;100.00;101035.72;5030257;28;20033;-76
2024/02/04 03:16:46;;;;;;;15.53;8.30;;;;;;;12.08;100.00;101028.25;4996136;28;20073;-75
2024/02/04 03:19:13;;;;;;;18.42;8.02;;;;;;;11.61;100.00;101028.41;4999250;28;20291;-75
2024/02/04 03:21:39;;;;;;;15.48;7.88;;;;;;;12.25;100.00;101042.28;5044952;28;20033;-75
2024/02/04 03:24:05;;;;;;;15.05;8.30;;;;;;;12.08;100.00;101040.06;5012744;28;20181;-75
2024/02/04 03:26:32;;;;;;;15.65;8.70;;;;;;;12.14;100.00;101041.06;5030047;28;20049;-75
2024/02/04 03:28:58;;;;;;;15.73;8.35;;;;;;;11.94;100.00;101036.50;5030070;28;20033;-75
2024/02/04 03:31:24;;;;;;;16.33;8.73;;;;;;;12.01;100.00;101039.22;5012298;28;20485;-75
2024/02/04 03:33:51;;;;;;;21.80;9.25;;;;;;;12.00;100.00;101036.69;5028889;28;20528;-76
2024/02/04 03:36:21;;;;;;;16.92;8.60;;;;;;;11.91;100.00;101034.19;5045735;28;20072;-76
2024/02/04 03:38:49;;;;;;;13.60;8.57;;;;;;;12.16;100.00;101036.22;4996612;28;20048;-76
2024/02/04 03:41:15;;;;;;;15.32;7.75;;;;;;;12.16;100.00;101022.53;5012358;28;20112;-76
2024/02/04 03:43:42;;;;;;;18.52;7.75;;;;;;;12.41;100.00;101032.72;4979620;28;20125;-76
2024/02/04 03:46:08;;;;;;;13.27;7.78;;;;;;;12.00;100.00;101036.69;5010921;28;20381;-76
2024/02/04 03:48:35;;;;;;;15.63;8.40;;;;;;;12.18;100.00;101044.22;4996149;28;20043;-75
2024/02/04 03:51:01;;;;;;;14.45;7.85;;;;;;;12.35;100.00;101034.44;5003546;28;20026;-76
2024/02/04 03:53:28;;;;;;;16.17;7.82;;;;;;;12.18;100.00;101039.56;5023905;28;20041;-76
2024/02/04 03:55:55;;;;;;;18.30;8.37;;;;;;;12.18;100.00;101041.47;5012134;28;20147;-76
2024/02/04 03:58:29;;;;;;;13.93;7.35;;;;;;;12.31;100.00;101043.31;5029385;28;20048;-77
2024/02/04 04:00:56;;;;;;;14.70;7.35;;;;;;;12.15;100.00;101040.00;5026118;28;20519;-75
2024/02/04 04:03:23;;;;;;;16.00;7.67;;;;;;;12.30;100.00;101027.94;5029692;28;20501;-75
2024/02/04 04:05:49;;;;;;;14.40;8.00;;;;;;;11.85;100.00;101026.03;5029199;28;20453;-76
2024/02/04 04:08:16;;;;;;;14.23;7.80;;;;;;;11.84;100.00;101022.44;5024291;28;20485;-76
2024/02/04 04:10:42;;;;;;;14.82;8.98;;;;;;;11.30;100.00;101025.31;5029880;28;20042;-76
2024/02/04 04:13:08;;;;;;;15.95;7.85;;;;;;;11.81;100.00;101020.16;5029875;28;20045;-76
2024/02/04 04:15:34;;;;;;;13.93;7.80;;;;;;;12.13;100.00;101014.78;5029357;28;20150;-76
2024/02/04 04:18:00;;;;;;;17.08;7.90;;;;;;;11.66;100.00;101021.22;5032692;28;20038;-76
2024/02/04 04:20:26;;;;;;;12.80;7.55;;;;;;;11.41;100.00;101012.09;5033310;28;20052;-76
2024/02/04 04:22:52;;;;;;;16.58;7.78;;;;;;;11.60;100.00;101002.97;5032549;28;20061;-76
2024/02/04 04:25:18;;;;;;;15.65;8.10;;;;;;;11.54;100.00;101012.03;5033501;28;20037;-76
2024/02/04 04:27:44;;;;;;;17.40;8.05;;;;;;;11.14;100.00;101006.63;5033218;28;20048;-75
2024/02/04 04:30:11;;;;;;;18.85;7.55;;;;;;;11.53;100.00;101015.81;5032920;28;20040;-75
2024/02/04 04:32:37;;;;;;;16.70;8.05;;;;;;;11.08;100.00;101020.09;5033584;28;20033;-75
2024/02/04 04:35:03;;;;;;;16.40;7.97;;;;;;;11.48;100.00;101013.72;5033420;28;20040;-75
2024/02/04 04:37:29;;;;;;;11.65;7.38;;;;;;;11.41;100.00;101023.84;5015954;28;20037;-74
2024/02/04 04:39:56;;;;;;;14.65;7.30;;;;;;;11.32;100.00;101025.13;5033249;28;20037;-76
2024/02/04 04:42:22;;;;;;;15.68;7.82;;;;;;;11.32;100.00;101015.00;5033368;28;20049;-75
2024/02/04 04:44:48;;;;;;;19.25;8.27;;;;;;;11.14;100.00;101003.91;5031855;28;20037;-75
2024/02/04 04:47:15;;;;;;;16.05;9.07;;;;;;;11.50;100.00;101018.97;5016188;28;20397;-75
2024/02/04 04:49:41;;;;;;;15.70;7.63;;;;;;;11.59;100.00;101004.03;5032824;28;20037;-75
2024/02/04 04:52:08;;;;;;;16.00;8.13;;;;;;;11.69;100.00;101014.50;5032947;28;20040;-75
2024/02/04 04:54:34;;;;;;;13.80;7.90;;;;;;;10.76;100.00;101039.00;5033582;28;20095;-75
2024/02/04 04:57:00;;;;;;;15.30;8.02;;;;;;;11.30;100.00;101047.16;5030343;28;20060;-75
2024/02/04 04:59:26;;;;;;;15.32;8.15;;;;;;;11.24;100.00;101050.75;5033048;28;20049;-76
2024/02/04 05:01:52;;;;;;;18.90;8.07;;;;;;;11.41;100.00;101029.28;5014784;28;20041;-76
2024/02/04 05:04:18;;;;;;;14.95;7.93;;;;;;;10.99;100.00;101020.50;5032207;28;20087;-75
2024/02/04 05:06:44;;;;;;;16.15;8.95;;;;;;;11.08;100.00;101024.72;5028080;28;20061;-77
2024/02/04 05:09:11;;;;;;;14.75;7.82;;;;;;;10.90;100.00;101017.16;5032737;28;20045;-76
2024/02/04 05:11:37;;;;;;;12.98;7.70;;;;;;;11.00;100.00;101035.84;5047516;28;20501;-76
2024/02/04 05:14:03;;;;;;;19.58;10.07;;;;;;;10.91;100.00;101027.03;5031504;28;20123;-77
2024/02/04 05:16:30;;;;;;;19.10;7.93;;;;;;;11.20;100.00;101012.09;5032266;28;20044;-76
2024/02/04 05:18:56;;;;;;;15.43;8.10;;;;;;;11.14;100.00;101012.09;5046848;28;20462;-76
2024/02/04 05:21:22;;;;;;;16.15;9.15;;;;;;;11.94;100.00;101011.06;5032081;28;20029;-75
2024/02/04 05:23:48;;;;;;;17.75;8.32;;;;;;;11.48;100.00;101023.81;5004979;28;20124;-76
2024/02/04 05:26:17;;;;;;;19.88;9.43;;;;;;;11.68;100.00;101033.88;4999295;28;20038;-75
2024/02/04 05:28:43;;;;;;;19.35;9.27;;;;;;;11.21;100.00;101041.06;5031136;28;20469;-76
2024/02/04 05:31:09;;;;;;;19.27;9.00;;;;;;;11.85;100.00;101028.75;5031996;28;20037;-76
2024/02/04 05:33:35;;;;;;;15.25;8.70;;;;;;;11.55;100.00;101021.09;5031526;28;20068;-77
2024/02/04 05:36:01;;;;;;;18.52;9.25;;;;;;;11.78;100.00;101012.38;5031337;28;20037;-76
2024/02/04 05:38:27;;;;;;;18.52;9.23;;;;;;;11.17;100.00;101008.97;5004818;28;20151;-75
2024/02/04 05:40:53;;;;;;;19.65;9.88;;;;;;;11.61;100.00;101007.38;5031393;28;20112;-76
2024/02/04 05:43:19;;;;;;;25.55;10.25;;;;;;;11.56;100.00;101009.91;5031542;28;20037;-76
2024/02/04 05:45:45;;;;;;;18.00;10.02;;;;;;;11.57;100.00;101008.88;5031801;28;20041;-76
2024/02/04 05:48:11;;;;;;;16.15;9.68;;;;;;;11.33;100.00;101005.75;5030945;28;20113;-77
2024/02/04 05:50:37;;;;;;;19.65;9.13;;;;;;;11.39;100.00;101000.50;5031668;28;20037;-76
2024/02/04 05:53:04;;;;;;;19.02;9.63;;;;;;;11.70;100.00;100998.97;5046687;28;20545;-76
2024/02/04 05:55:30;;;;;;;20.50;9.73;;;;;;;11.46;100.00;101006.81;5031716;28;20045;-76
2024/02/04 05:57:56;;;;;;;16.92;8.35;;;;;;;11.59;100.00;100998.56;5026995;28;20045;-77
2024/02/04 06:00:23;;;;;;;14.80;7.63;;;;;;;11.68;100.00;100990.16;5031453;28;20142;-76
2024/02/04 06:02:49;;;;;;;13.05;7.00;;;;;;;11.50;100.00;100989.75;5030134;28;20540;-76
2024/02/04 06:05:15;;;;;;;9.90;6.50;;;;;;;11.14;100.00;100996.56;5029528;28;20038;-76
2024/02/04 06:07:43;;;;;;;11.38;6.45;;;;;;;11.24;100.00;100990.66;5029245;28;20025;-76
2024/02/04 06:10:10;;;;;;;11.15;5.90;;;;;;;11.00;100.00;100983.97;5028630;28;20033;-77
2024/02/04 06:12:37;;;;;;;14.67;5.90;;;;;;;11.37;100.00;100982.44;5025237;28;20045;-76
2024/02/04 06:15:04;;;;;;;12.43;5.70;;;;;;;11.63;100.00;100983.41;5029159;28;20045;-77
2024/02/04 06:17:30;;;;;;;10.15;5.90;;;;;;;11.22;100.00;100984.59;5030072;28;20466;-76
2024/02/04 06:19:57;;;;;;;10.73;5.47;;;;;;;11.65;100.00;100969.53;5012682;28;20039;-76
2024/02/04 06:22:23;;;;;;;14.32;5.40;;;;;;;11.31;100.00;100969.63;5030662;28;20047;-76
2024/02/04 06:24:50;;;;;;;10.73;5.30;;;;;;;11.60;100.00;100972.09;5031416;28;20061;-76
2024/02/04 06:27:16;;;;;;;8.80;4.90;;;;;;;10.88;100.00;100970.97;5030672;28;20037;-77
2024/02/04 06:29:42;;;;;;;9.52;4.70;;;;;;;11.51;100.00;100958.66;5003549;28;20469;-76
2024/02/04 06:32:08;;;;;;;10.32;4.75;;;;;;;11.34;100.00;100963.75;5046046;28;20061;-76
2024/02/04 06:34:34;;;;;;;8.43;4.80;;;;;;;11.78;100.00;100961.25;5025289;28;20461;-79
2024/02/04 06:37:00;;;;;;;7.03;3.88;;;;;;;10.83;100.00;100968.03;5031040;28;20037;-76
2024/02/04 06:39:26;;;;;;;7.45;3.85;;;;;;;11.43;100.00;100958.88;5030765;28;20045;-76
2024/02/04 06:41:52;;;;;;;7.03;3.75;;;;;;;11.35;100.00;100949.03;5030876;28;20042;-76
2024/02/04 06:44:18;;;;;;;9.30;3.70;;;;;;;10.74;100.00;100948.31;5012703;28;20112;-77
2024/02/04 06:46:44;;;;;;;9.82;3.47;;;;;;;10.94;100.00;100948.28;5028887;28;20438;-76
2024/02/04 06:49:11;;;;;;;7.00;3.70;;;;;;;10.86;100.00;100943.03;5025412;28;20041;-78
2024/02/04 06:51:37;;;;;;;8.88;4.13;;;;;;;10.75;100.00;100936.34;5029533;28;20048;-77
2024/02/04 06:54:03;;;;;;;10.80;3.58;;;;;;;10.97;100.00;100948.91;5029515;28;20481;-78
2024/02/04 06:56:29;;;;;;;7.18;2.83;;;;;;;10.98;100.00;100984.19;5031989;28;20079;-77
2024/02/04 06:58:55;;;;;;;6.07;2.50;;;;;;;11.35;100.00;100942.75;5027874;28;20029;-77
2024/02/04 07:01:21;;;;;;;12.88;2.88;;;;;;;11.05;100.00;100952.25;5031155;28;20485;-78
2024/02/04 07:03:47;;;;;;;5.90;2.83;;;;;;;11.31;100.00;100925.94;5030441;28;20037;-77
2024/02/04 07:06:14;;;;;;;6.43;2.40;;;;;;;11.12;100.00;100926.81;5006883;28;20592;-77
2024/02/04 07:08:40;;;;;;;10.23;2.95;;;;;;;11.41;100.00;100924.66;5030226;28;20710;-76
2024/02/04 07:11:06;;;;;;;7.28;2.67;;;;;;;11.76;100.00;100916.09;5030103;28;20481;-76
2024/02/04 07:13:32;;;;;;;6.65;2.53;;;;;;;11.60;100.00;100910.06;5030156;28;20103;-76
2024/02/04 07:15:59;;;;;;;11.65;3.08;;;;;;;11.47;100.00;100921.06;5012377;28;20032;-76
2024/02/04 07:18:25;;;;;;;8.63;2.88;;;;;;;11.63;100.00;100901.41;5029939;28;20511;-76
2024/02/04 07:20:51;;;;;;;6.80;2.55;;;;;;;11.52;100.00;100905.66;5019945;28;20042;-77
2024/02/04 07:23:17;;;;;;;9.30;2.90;;;;;;;11.06;100.00;100910.25;5012512;28;20053;-76
2024/02/04 07:25:43;;;;;;;9.45;3.08;;;;;;;11.56;100.00;100917.03;5029974;28;20045;-77
2024/02/04 07:28:09;;;;;;;8.07;3.00;;;;;;;11.59;100.00;100922.03;5029827;28;20564;-77
2024/02/04 07:30:35;;;;;;;8.65;3.60;;;;;;;10.94;100.00;100906.50;5007336;28;20041;-78
2024/02/04 07:33:01;;;;;;;7.07;3.17;;;;;;;11.51;100.00;100900.44;5044960;28;20398;-77
2024/02/04 07:35:27;;;;;;;7.43;2.90;;;;;;;11.66;100.00;100922.03;5030030;28;20099;-77
2024/02/04 07:37:53;;;;;;;9.88;3.20;;;;;;;11.17;100.00;100908.75;5030247;28;20128;-77
2024/02/04 07:40:20;;;;;;;7.45;3.58;;;;;;;11.06;100.00;100926.63;5027243;28;20056;-77
2024/02/04 07:42:46;;;;;;;7.70;3.40;;;;;;;11.71;100.00;100927.66;5012899;28;20116;-77
2024/02/04 07:45:12;;;;;;;6.90;2.90;;;;;;;11.33;100.00;100932.03;5029838;28;20508;-78
2024/02/04 07:47:38;;;;;;;8.82;2.58;;;;;;;11.31;100.00;100923.22;5009341;28;20393;-78
2024/02/04 07:50:04;;;;;;;7.47;2.58;;;;;;;11.78;100.00;100913.97;5028616;28;20065;-77
2024/02/04 07:52:31;;;;;;;10.27;2.70;;;;;;;12.09;100.00;100893.22;5032569;28;20033;-78
2024/02/04 07:54:57;;;;;;;5.93;2.40;;;;;;;11.48;100.00;100909.06;5029231;28;20040;-78
2024/02/04 07:57:23;;;;;;;7.68;2.42;;;;;;;11.63;100.00;100919.72;5014524;28;20052;-78
2024/02/04 07:59:49;;;;;;;4.13;1.73;;;;;;;11.67;100.00;100910.03;5030028;28;20567;-77
2024/02/04 08:02:15;;;;;;;7.57;2.20;;;;;;;11.63;100.00;100908.81;5024200;28;20045;-77
2024/02/04 08:04:41;;;;;;;6.25;2.22;;;;;;;11.79;100.00;100904.72;5028144;28;20045;-77
2024/02/04 08:07:08;;;;;;;4.28;1.67;;;;;;;11.73;100.00;100906.41;5031809;28;20078;-77
2024/02/04 08:09:34;;;;;;;4.72;1.83;;;;;;;11.42;100.00;100904.50;5030840;28;20090;-77
2024/02/04 08:12:00;;;;;;;6.30;1.88;;;;;;;12.21;100.00;100902.41;5027659;28;20026;-76
2024/02/04 08:14:26;;;;;;;4.82;2.65;;;;;;;11.91;100.00;100896.66;5031048;28;20083;-78
2024/02/04 08:16:52;;;;;;;5.82;2.00;;;;;;;12.03;100.00;100902.31;5031593;28;20034;-79
2024/02/04 08:19:18;;;;;;;6.00;1.83;;;;;;;12.16;100.00;100910.41;5023130;28;20038;-78
2024/02/04 08:21:45;;;;;;;6.40;1.65;;;;;;;12.19;100.00;100912.69;5019872;28;20444;-76
2024/02/04 08:24:11;;;;;;;5.63;1.67;;;;;;;12.26;100.00;100906.34;5032585;28;20038;-77
2024/02/04 08:26:37;;;;;;;4.68;1.40;;;;;;;11.88;100.00;100889.72;5033276;28;20060;-76
2024/02/04 08:29:03;;;;;;;5.40;1.55;;;;;;;11.98;100.00;100899.38;5032999;28;20047;-77
2024/02/04 08:31:31;;;;;;;5.13;1.67;;;;;;;12.01;100.00;100866.97;5031071;28;20046;-76
2024/02/04 08:33:57;;;;;;;7.25;1.48;;;;;;;12.54;98.91;100885.94;5027893;28;20047;-76
2024/02/04 08:36:24;;;;;;;7.03;1.48;;;;;;;12.32;99.13;100897.25;5028394;28;20041;-76
2024/02/04 08:38:50;;;;;;;6.63;1.58;;;;;;;11.94;100.00;100894.34;5029579;28;20045;-76
2024/02/04 08:41:16;;;;;;;5.93;1.63;;;;;;;11.60;100.00;100896.41;5031373;28;20112;-76
2024/02/04 08:43:42;;;;;;;6.07;1.45;;;;;;;12.11;98.70;100896.56;5032148;28;20426;-76
2024/02/04 08:46:08;;;;;;;6.22;1.20;;;;;;;12.49;95.81;100881.13;5031836;28;20033;-75
2024/02/04 08:48:34;;;;;;;7.72;1.20;;;;;;;12.19;94.56;100879.88;5016047;28;20045;-76
2024/02/04 08:51:01;;;;;;;5.97;1.27;;;;;;;12.28;94.87;100906.97;4984534;28;20038;-76
2024/02/04 08:53:27;;;;;;;7.82;1.60;;;;;;;12.01;95.41;100905.25;5032468;28;20546;-75
2024/02/04 08:55:53;;;;;;;6.38;1.33;;;;;;;11.97;95.54;100912.19;5027266;28;20037;-76
2024/02/04 08:58:19;;;;;;;6.25;1.30;;;;;;;11.70;93.59;100889.66;5024997;28;20061;-76
2024/02/04 09:00:45;;;;;;;5.85;1.45;;;;;;;11.74;94.95;100916.31;5005119;28;20037;-75
2024/02/04 09:03:12;;;;;;;6.03;1.58;;;;;;;12.33;93.13;100901.66;5027954;28;20042;-75
2024/02/04 09:05:38;;;;;;;7.50;1.10;;;;;;;12.04;92.87;100909.44;5030349;28;20044;-76
2024/02/04 09:08:04;;;;;;;8.40;1.85;;;;;;;12.03;95.47;100911.31;5008133;28;20040;-75
2024/02/04 09:10:30;;;;;;;5.97;1.38;;;;;;;11.82;93.40;100915.22;5032588;28;20056;-76
2024/02/04 09:12:57;;;;;;;8.75;1.75;;;;;;;12.33;92.78;100929.03;5031971;28;20486;-78
2024/02/04 09:15:23;;;;;;;7.60;1.33;;;;;;;11.50;91.56;100923.34;5048140;28;20125;-79
2024/02/04 09:17:49;;;;;;;6.45;1.48;;;;;;;11.66;94.49;100922.84;5030880;28;20033;-78
2024/02/04 09:20:15;;;;;;;5.50;1.52;;;;;;;12.04;91.57;100921.22;5030482;28;20089;-78
2024/02/04 09:22:41;;;;;;;6.32;1.77;;;;;;;11.71;92.28;100908.53;5002902;28;20038;-77
2024/02/04 09:25:07;;;;;;;6.72;1.40;;;;;;;11.58;92.39;100925.84;5029764;28;20029;-78
2024/02/04 09:27:33;;;;;;;5.65;1.33;;;;;;;12.18;90.04;100907.47;5027945;28;20044;-77
2024/02/04 09:29:59;;;;;;;6.63;1.67;;;;;;;11.91;91.03;100911.16;5029689;28;20044;-78
2024/02/04 09:32:25;;;;;;;12.00;3.08;;;;;;;11.95;91.44;100892.44;5030801;28;20599;-79
2024/02/04 09:34:52;;;;;;;12.82;1.73;;;;;;;11.47;91.21;100896.47;5013206;28;20064;-79
2024/02/04 09:37:18;;;;;;;7.82;1.40;;;;;;;12.46;88.14;100898.81;5010249;28;20136;-78
2024/02/04 09:39:44;;;;;;;6.97;1.60;;;;;;;12.41;88.47;100895.91;5031428;28;20138;-77
2024/02/04 09:42:16;;;;;;;11.02;1.67;;;;;;;12.60;86.45;100904.19;5046993;28;20033;-77
2024/02/04 09:44:43;;;;;;;8.02;1.88;;;;;;;12.36;88.76;100898.47;5005428;28;20092;-77
2024/02/04 09:47:11;;;;;;;6.97;1.40;;;;;;;12.14;89.53;100907.06;5008679;28;20553;-76
2024/02/04 09:49:37;;;;;;;8.68;1.90;;;;;;;12.54;88.55;100911.38;5028418;28;20091;-77
2024/02/04 09:52:08;;;;;;;8.02;2.00;;;;;;;11.61;88.47;100892.59;5014533;28;20476;-77
2024/02/04 09:55:01;;;;;;;9.18;1.92;;;;;;;11.80;90.49;100906.41;5031546;28;20562;-77
2024/02/04 09:57:29;;;;;;;9.60;1.77;;;;;;;11.23;94.42;100924.28;5046089;28;20080;-77
2024/02/04 09:59:55;;;;;;;7.00;1.98;;;;;;;11.27;93.89;100907.44;5030710;28;20034;-77
2024/02/04 10:02:21;;;;;;;7.43;1.98;;;;;;;11.21;94.28;100918.19;5023593;28;20496;-77
2024/02/04 10:04:48;;;;;;;9.18;1.65;;;;;;;12.37;90.53;100905.63;5009759;28;20046;-75
2024/02/04 10:07:16;;;;;;;8.15;1.83;;;;;;;12.20;89.66;100932.69;5010723;28;20088;-77
2024/02/04 10:09:43;;;;;;;10.30;2.35;;;;;;;11.94;91.62;100935.34;5008537;28;20090;-77
2024/02/04 10:12:09;;;;;;;8.93;1.55;;;;;;;11.46;94.50;100946.72;5020684;28;20037;-77
2024/02/04 10:14:35;;;;;;;10.50;1.67;;;;;;;11.95;91.02;100936.16;5010200;28;20042;-77
2024/02/04 10:17:04;;;;;;;11.63;2.22;;;;;;;11.10;91.51;100945.31;5011416;28;20394;-76
2024/02/04 10:19:30;;;;;;;6.65;1.58;;;;;;;11.49;94.00;100946.28;5005344;28;20124;-76
2024/02/04 10:22:04;;;;;;;9.10;1.65;;;;;;;11.14;91.70;100939.22;5011751;28;20033;-77
2024/02/04 10:24:30;;;;;;;9.20;1.70;;;;;;;11.81;93.54;100935.41;5010182;28;20049;-76
2024/02/04 10:26:57;;;;;;;13.40;1.80;;;;;;;11.62;92.72;100920.78;5000321;28;20040;-76
2024/02/04 10:29:24;;;;;;;8.18;1.60;;;;;;;12.16;89.67;100932.28;5011017;28;20038;-76
2024/02/04 10:31:57;;;;;;;11.93;3.13;;;;;;;12.08;90.46;100936.16;5011258;28;20048;-76
2024/02/04 10:34:27;;;;;;;11.18;1.85;;;;;;;11.96;91.59;100937.03;5001587;28;20037;-76
2024/02/04 10:36:53;;;;;;;7.80;1.90;;;;;;;12.08;89.47;100919.72;5010468;28;20044;-77
2024/02/04 10:39:20;;;;;;;11.23;2.15;;;;;;;12.28;88.39;100939.78;5009065;28;20034;-77
2024/02/04 10:41:54;;;;;;;10.95;1.80;;;;;;;11.99;89.20;100910.06;5010869;28;20117;-77
2024/02/04 10:44:26;;;;;;;12.27;2.08;;;;;;;11.87;90.42;100907.19;5010041;28;20354;-76
2024/02/04 10:46:54;;;;;;;8.00;1.98;;;;;;;12.37;89.50;100900.16;5042180;28;20049;-76
2024/02/04 10:49:20;;;;;;;;;;;;;;;12.25;89.17;100912.88;5011295;28;20129;-77
2024/02/04 10:51:47;;;;;;;9.13;1.60;;;;;;;12.27;90.17;100908.03;5008440;28;19921;-76
2024/02/04 10:54:17;;;;;;;7.50;1.57;;;;;;;12.74;85.64;100872.03;5008569;28;20042;-76
2024/02/04 10:56:45;;;;;;;9.77;1.63;;;;;;;11.69;89.55;100885.25;5010156;28;20120;-76
2024/02/04 10:59:17;;;;;;;7.75;1.50;;;;;;;12.25;88.63;100900.03;5004628;28;20033;-77
2024/02/04 11:01:45;;;;;;;8.43;1.90;;;;;;;11.73;92.90;100884.56;5005129;28;20049;-78
2024/02/04 11:04:14;;;;;;;8.90;1.85;;;;;;;11.98;91.68;100891.97;5028069;28;20051;-76
2024/02/04 11:06:42;;;;;;;8.50;2.08;;;;;;;12.16;89.61;100871.28;5023242;28;20036;-77
2024/02/04 11:09:11;;;;;;;8.13;2.05;;;;;;;12.48;89.86;100885.78;5019757;28;20511;-76
2024/02/04 11:11:39;;;;;;;10.15;1.80;;;;;;;13.00;85.74;100881.91;5028335;28;20088;-77